createdAt,value
2019-05-31T00:01:26.747Z,16.70
2019-05-31T00:03:57.282Z,16.70
2019-05-31T00:06:27.080Z,16.70
2019-05-31T00:08:57.893Z,16.70
2019-05-31T00:11:27.609Z,16.80
2019-05-31T00:14:13.596Z,16.80
2019-05-31T00:16:28.466Z,16.80
2019-05-31T00:18:58.895Z,16.80
2019-05-31T00:21:28.628Z,16.80
2019-05-31T00:23:58.357Z,16.80
2019-05-31T00:26:28.036Z,16.80
2019-05-31T00:28:58.676Z,16.80
2019-05-31T00:31:28.268Z,16.70
2019-05-31T00:33:57.762Z,16.70
2019-05-31T00:36:27.256Z,16.70
2019-05-31T00:38:56.907Z,16.70
2019-05-31T00:41:26.494Z,16.60
2019-05-31T00:43:57.209Z,16.60
2019-05-31T00:46:26.825Z,16.60
2019-05-31T00:48:57.532Z,16.60
2019-05-31T00:51:27.255Z,16.60
2019-05-31T00:53:58.065Z,16.70
2019-05-31T00:56:27.826Z,16.70
2019-05-31T00:58:58.515Z,16.70
2019-05-31T01:01:28.238Z,16.60
2019-05-31T01:03:58.918Z,16.60
2019-05-31T01:06:28.691Z,16.60
2019-05-31T01:08:59.328Z,16.60
2019-05-31T01:11:29.176Z,16.60
2019-05-31T01:13:59.786Z,16.60
2019-05-31T01:16:29.705Z,16.60
2019-05-31T01:19:00.450Z,16.60
2019-05-31T01:21:29.996Z,16.50
2019-05-31T01:24:00.837Z,16.60
2019-05-31T01:26:30.368Z,16.60
2019-05-31T01:28:59.859Z,16.60
2019-05-31T01:31:29.442Z,16.60
2019-05-31T01:33:59.929Z,16.60
2019-05-31T01:36:29.541Z,16.60
2019-05-31T01:39:00.267Z,16.60
2019-05-31T01:41:29.924Z,16.60
2019-05-31T01:44:00.801Z,16.50
2019-05-31T01:46:30.517Z,16.60
2019-05-31T01:49:00.013Z,16.60
2019-05-31T01:51:29.516Z,16.60
2019-05-31T01:53:59.256Z,16.60
2019-05-31T01:56:29.569Z,16.60
2019-05-31T01:58:59.073Z,16.60
2019-05-31T02:01:28.557Z,16.60
2019-05-31T02:03:58.116Z,16.60
2019-05-31T02:06:27.633Z,16.60
2019-05-31T02:08:57.092Z,16.60
2019-05-31T02:11:26.597Z,16.50
2019-05-31T02:13:56.084Z,16.50
2019-05-31T02:16:25.782Z,16.50
2019-05-31T02:18:55.306Z,16.50
2019-05-31T02:21:24.902Z,16.50
2019-05-31T02:23:54.429Z,16.50
2019-05-31T02:26:23.915Z,16.50
2019-05-31T02:28:53.598Z,16.50
2019-05-31T02:31:23.156Z,16.40
2019-05-31T02:33:52.771Z,16.40
2019-05-31T02:36:22.350Z,16.40
2019-05-31T02:38:51.989Z,16.40
2019-05-31T02:41:21.496Z,16.40
2019-05-31T02:43:51.066Z,16.40
2019-05-31T02:46:20.605Z,16.40
2019-05-31T02:48:50.347Z,16.40
2019-05-31T02:51:20.707Z,16.40
2019-05-31T02:53:51.145Z,16.40
2019-05-31T02:56:22.644Z,16.30
2019-05-31T02:58:55.407Z,16.30
2019-05-31T03:01:25.629Z,16.30
2019-05-31T03:03:55.175Z,16.30
2019-05-31T03:06:28.573Z,16.30
2019-05-31T03:08:59.771Z,16.30
2019-05-31T03:11:31.217Z,16.30
2019-05-31T03:14:01.598Z,16.30
2019-05-31T03:16:31.310Z,16.30
2019-05-31T03:19:02.147Z,16.30
2019-05-31T03:21:31.844Z,16.30
2019-05-31T03:24:01.381Z,16.30
2019-05-31T03:26:30.975Z,16.30
2019-05-31T03:29:00.541Z,16.40
2019-05-31T03:31:36.478Z,16.30
2019-05-31T03:34:01.332Z,16.30
2019-05-31T03:36:36.011Z,16.30
2019-05-31T03:39:02.285Z,16.30
2019-05-31T03:41:31.789Z,16.30
2019-05-31T03:44:01.333Z,16.30
2019-05-31T03:46:40.884Z,16.30
2019-05-31T03:49:02.141Z,16.30
2019-05-31T03:51:31.650Z,16.30
2019-05-31T03:54:01.161Z,16.30
2019-05-31T03:56:30.689Z,16.30
2019-05-31T03:59:00.248Z,16.30
2019-05-31T04:01:29.825Z,16.30
2019-05-31T04:03:59.373Z,16.30
2019-05-31T04:06:28.983Z,16.30
2019-05-31T04:08:58.467Z,16.30
2019-05-31T04:11:28.011Z,16.30
2019-05-31T04:13:57.503Z,16.30
2019-05-31T04:16:45.527Z,16.30
2019-05-31T04:18:58.357Z,16.30
2019-05-31T04:21:30.250Z,16.20
2019-05-31T04:23:59.821Z,16.20
2019-05-31T04:26:29.454Z,16.20
2019-05-31T04:28:59.033Z,16.20
2019-05-31T04:31:28.561Z,16.20
2019-05-31T04:33:58.042Z,16.20
2019-05-31T04:36:27.701Z,16.20
2019-05-31T04:38:57.506Z,16.30
2019-05-31T04:41:27.246Z,16.30
2019-05-31T04:43:58.455Z,16.30
2019-05-31T04:46:28.238Z,16.30
2019-05-31T04:48:57.965Z,16.30
2019-05-31T04:51:27.561Z,16.30
2019-05-31T04:53:57.224Z,16.30
2019-05-31T04:56:27.353Z,16.30
2019-05-31T04:58:57.000Z,16.30
2019-05-31T05:01:26.832Z,16.40
2019-05-31T05:03:56.550Z,16.40
2019-05-31T05:06:26.975Z,16.40
2019-05-31T05:08:57.027Z,16.50
2019-05-31T05:11:27.025Z,16.50
2019-05-31T05:13:56.797Z,16.60
2019-05-31T05:16:27.062Z,16.70
2019-05-31T05:18:57.253Z,16.70
2019-05-31T05:21:27.111Z,16.80
2019-05-31T05:23:57.078Z,16.90
2019-05-31T05:26:27.426Z,16.90
2019-05-31T05:28:57.037Z,16.80
2019-05-31T05:31:26.592Z,16.80
2019-05-31T05:33:56.333Z,16.70
2019-05-31T05:36:26.436Z,16.70
2019-05-31T05:38:56.606Z,16.70
2019-05-31T05:41:26.144Z,16.80
2019-05-31T05:43:55.750Z,16.90
2019-05-31T05:46:27.388Z,16.90
2019-05-31T05:48:57.236Z,17.00
2019-05-31T05:51:28.109Z,17.10
2019-05-31T05:53:57.902Z,17.20
2019-05-31T05:56:28.763Z,17.20
2019-05-31T05:58:59.105Z,17.20
2019-05-31T06:01:29.466Z,17.20
2019-05-31T06:03:59.050Z,17.30
2019-05-31T06:06:30.154Z,17.50
2019-05-31T06:08:59.833Z,17.80
2019-05-31T06:11:31.737Z,17.90
2019-05-31T06:14:00.676Z,18.10
2019-05-31T06:16:50.157Z,18.30
2019-05-31T06:19:01.995Z,18.30
2019-05-31T06:21:32.426Z,18.00
2019-05-31T06:24:02.062Z,17.80
2019-05-31T06:26:32.651Z,17.60
2019-05-31T06:29:02.256Z,17.50
2019-05-31T06:31:32.933Z,17.40
2019-05-31T06:34:02.815Z,17.40
2019-05-31T06:36:32.990Z,17.40
2019-05-31T06:39:02.644Z,17.50
2019-05-31T06:41:32.359Z,17.60
2019-05-31T06:44:05.685Z,17.60
2019-05-31T06:46:36.067Z,17.60
2019-05-31T06:49:06.497Z,17.70
2019-05-31T06:51:37.195Z,17.80
2019-05-31T06:54:07.130Z,17.80
2019-05-31T06:56:37.024Z,17.90
2019-05-31T06:59:07.160Z,17.90
2019-05-31T07:01:40.836Z,18.00
2019-05-31T07:04:08.261Z,18.00
2019-05-31T07:06:38.282Z,18.20
2019-05-31T07:09:09.467Z,18.40
2019-05-31T07:11:39.009Z,18.70
2019-05-31T07:14:08.692Z,19.30
2019-05-31T07:16:39.091Z,19.80
2019-05-31T07:19:09.190Z,19.80
2019-05-31T07:21:41.475Z,19.70
2019-05-31T07:24:10.578Z,19.30
2019-05-31T07:26:40.315Z,19.00
2019-05-31T07:29:09.904Z,19.20
2019-05-31T07:31:43.330Z,19.20
2019-05-31T07:34:10.816Z,19.00
2019-05-31T07:36:40.740Z,18.90
2019-05-31T07:39:10.530Z,18.80
2019-05-31T07:41:41.113Z,18.80
2019-05-31T07:44:11.006Z,19.00
2019-05-31T07:46:57.234Z,19.30
2019-05-31T07:49:11.909Z,19.50
2019-05-31T07:51:42.595Z,20.00
2019-05-31T07:54:12.531Z,19.90
2019-05-31T07:56:43.098Z,19.90
2019-05-31T07:59:13.080Z,20.20
2019-05-31T08:01:43.110Z,20.60
2019-05-31T08:04:12.651Z,21.00
2019-05-31T08:06:42.313Z,21.50
2019-05-31T08:09:11.851Z,22.00
2019-05-31T08:11:41.509Z,21.70
2019-05-31T08:14:11.163Z,21.30
2019-05-31T08:16:56.746Z,21.40
2019-05-31T08:19:15.816Z,22.10
2019-05-31T08:21:43.355Z,22.60
2019-05-31T08:24:21.058Z,22.60
2019-05-31T08:26:44.478Z,22.50
2019-05-31T08:29:14.363Z,22.20
2019-05-31T08:31:45.988Z,21.90
2019-05-31T08:34:15.249Z,22.50
2019-05-31T08:37:00.041Z,23.50
2019-05-31T08:39:16.308Z,24.80
2019-05-31T08:41:46.133Z,24.60
2019-05-31T08:44:15.709Z,24.20
2019-05-31T08:46:45.568Z,24.60
2019-05-31T08:49:30.780Z,24.60
2019-05-31T08:51:46.836Z,24.30
2019-05-31T08:54:16.422Z,24.60
2019-05-31T08:56:46.083Z,25.00
2019-05-31T08:59:15.598Z,26.20
2019-05-31T09:01:45.292Z,26.80
2019-05-31T09:04:15.079Z,27.60
2019-05-31T09:06:44.562Z,27.20
2019-05-31T09:09:14.489Z,26.90
2019-05-31T09:11:44.000Z,26.90
2019-05-31T09:14:13.942Z,26.80
2019-05-31T09:16:43.556Z,27.00
2019-05-31T09:19:13.102Z,26.60
2019-05-31T09:21:42.983Z,27.00
2019-05-31T09:24:12.635Z,27.90
2019-05-31T09:26:42.828Z,27.10
2019-05-31T09:29:12.522Z,26.90
2019-05-31T09:31:42.219Z,27.00
2019-05-31T09:34:11.665Z,27.20
2019-05-31T09:36:41.250Z,27.50
2019-05-31T09:39:11.160Z,26.80
2019-05-31T09:41:43.231Z,26.20
2019-05-31T09:44:12.253Z,26.60
2019-05-31T09:46:41.851Z,26.70
2019-05-31T09:49:11.469Z,26.80
2019-05-31T09:51:41.903Z,26.80
2019-05-31T09:54:11.542Z,27.20
2019-05-31T09:56:42.060Z,27.70
2019-05-31T09:59:11.699Z,27.40
2019-05-31T10:01:42.431Z,27.00
2019-05-31T10:04:12.309Z,27.20
2019-05-31T10:06:42.428Z,27.20
2019-05-31T10:09:11.995Z,27.00
2019-05-31T10:11:42.877Z,27.10
2019-05-31T10:14:12.685Z,26.80
2019-05-31T10:16:42.932Z,26.70
2019-05-31T10:19:12.555Z,26.80
2019-05-31T10:21:42.902Z,27.20
2019-05-31T10:24:12.842Z,27.60
2019-05-31T10:26:43.057Z,28.10
2019-05-31T10:29:13.000Z,28.50
2019-05-31T10:31:43.406Z,28.70
2019-05-31T10:34:16.058Z,27.80
2019-05-31T10:36:45.937Z,27.60
2019-05-31T10:39:15.435Z,27.80
2019-05-31T10:41:45.200Z,27.00
2019-05-31T10:44:15.139Z,26.50
2019-05-31T10:46:44.919Z,26.70
2019-05-31T10:49:14.809Z,27.10
2019-05-31T10:51:44.674Z,26.80
2019-05-31T10:54:14.212Z,26.80
2019-05-31T10:56:44.501Z,26.20
2019-05-31T10:59:14.225Z,26.50
2019-05-31T11:01:45.478Z,27.30
2019-05-31T11:04:15.463Z,27.70
2019-05-31T11:06:45.199Z,27.40
2019-05-31T11:09:15.129Z,28.10
2019-05-31T11:11:46.391Z,28.90
2019-05-31T11:14:15.934Z,28.10
2019-05-31T11:16:48.420Z,27.10
2019-05-31T11:19:17.207Z,26.50
2019-05-31T11:21:46.998Z,26.10
2019-05-31T11:24:16.595Z,25.60
2019-05-31T11:26:48.324Z,25.70
2019-05-31T11:29:17.675Z,25.60
2019-05-31T11:31:48.631Z,25.50
2019-05-31T11:34:18.703Z,25.40
2019-05-31T11:36:48.427Z,25.20
2019-05-31T11:39:18.133Z,25.20
2019-05-31T11:41:53.998Z,25.00
2019-05-31T11:44:19.313Z,24.70
2019-05-31T11:46:49.005Z,24.70
2019-05-31T11:49:21.809Z,24.40
2019-05-31T11:51:51.442Z,24.10
2019-05-31T11:54:21.164Z,23.90
2019-05-31T11:56:51.158Z,23.80
2019-05-31T11:59:21.185Z,24.00
2019-05-31T12:01:52.102Z,24.10
2019-05-31T12:04:22.689Z,24.20
2019-05-31T12:06:52.449Z,24.20
2019-05-31T12:09:23.070Z,24.50
2019-05-31T12:11:52.794Z,24.80
2019-05-31T12:14:22.574Z,25.00
2019-05-31T12:16:55.474Z,25.10
2019-05-31T12:19:24.298Z,25.40
2019-05-31T12:22:00.213Z,25.10
2019-05-31T12:24:25.642Z,24.70
2019-05-31T12:26:55.220Z,24.80
2019-05-31T12:29:25.123Z,24.90
2019-05-31T12:31:54.823Z,24.80
2019-05-31T12:34:24.520Z,25.00
2019-05-31T12:36:54.785Z,24.90
2019-05-31T12:39:24.852Z,24.90
2019-05-31T12:41:54.606Z,25.30
2019-05-31T12:44:24.226Z,25.50
2019-05-31T12:46:54.763Z,25.60
2019-05-31T12:49:24.539Z,25.50
2019-05-31T12:52:05.716Z,25.20
2019-05-31T12:54:25.637Z,25.30
2019-05-31T12:56:55.534Z,25.40
2019-05-31T12:59:25.477Z,25.50
2019-05-31T13:01:55.301Z,25.40
2019-05-31T13:04:25.071Z,25.20
2019-05-31T13:06:56.855Z,25.50
2019-05-31T13:09:27.330Z,25.60
2019-05-31T13:11:57.596Z,25.70
2019-05-31T13:14:27.489Z,25.30
2019-05-31T13:16:57.432Z,25.00
2019-05-31T13:19:26.942Z,25.20
2019-05-31T13:21:56.814Z,25.50
2019-05-31T13:24:26.858Z,25.20
2019-05-31T13:26:57.067Z,25.00
2019-05-31T13:29:26.772Z,25.30
2019-05-31T13:31:58.491Z,25.70
2019-05-31T13:34:28.377Z,25.40
2019-05-31T13:36:58.642Z,25.10
2019-05-31T13:39:28.622Z,25.10
2019-05-31T13:41:58.682Z,25.10
2019-05-31T13:44:28.442Z,25.50
2019-05-31T13:46:58.322Z,25.50
2019-05-31T13:49:28.159Z,25.30
2019-05-31T13:51:58.185Z,25.30
2019-05-31T13:54:28.017Z,24.80
2019-05-31T13:56:57.948Z,24.40
2019-05-31T13:59:27.668Z,24.40
2019-05-31T14:01:58.106Z,24.50
2019-05-31T14:04:28.084Z,24.50
2019-05-31T14:06:58.202Z,24.80
2019-05-31T14:09:28.328Z,25.00
2019-05-31T14:11:58.955Z,24.60
2019-05-31T14:14:29.703Z,24.80
2019-05-31T14:16:59.512Z,24.90
2019-05-31T14:19:32.082Z,24.90
2019-05-31T14:22:03.424Z,24.70
2019-05-31T14:24:33.228Z,24.50
2019-05-31T14:27:02.892Z,24.70
2019-05-31T14:29:32.515Z,24.70
2019-05-31T14:32:02.503Z,24.70
2019-05-31T14:34:32.885Z,24.80
2019-05-31T14:37:02.736Z,24.80
2019-05-31T14:39:32.540Z,24.70
2019-05-31T14:42:03.178Z,24.70
2019-05-31T14:44:32.948Z,24.90
2019-05-31T14:47:03.308Z,24.90
2019-05-31T14:49:35.942Z,24.90
2019-05-31T14:52:05.959Z,24.80
2019-05-31T14:54:38.101Z,24.70
2019-05-31T14:57:08.574Z,24.70
2019-05-31T14:59:38.670Z,24.60
2019-05-31T15:02:08.278Z,24.60
2019-05-31T15:04:37.929Z,24.40
2019-05-31T15:07:08.229Z,24.20
2019-05-31T15:09:38.830Z,24.20
2019-05-31T15:12:09.695Z,24.20
2019-05-31T15:14:40.465Z,24.40
2019-05-31T15:17:10.076Z,24.50
2019-05-31T15:19:40.031Z,24.60
2019-05-31T15:22:09.754Z,24.70
2019-05-31T15:24:39.859Z,24.60
2019-05-31T15:27:13.801Z,24.60
2019-05-31T15:29:43.669Z,24.70
2019-05-31T15:32:39.766Z,24.50
2019-05-31T15:35:36.758Z,24.50
2019-05-31T15:38:10.059Z,24.40
2019-05-31T15:40:53.960Z,24.40
2019-05-31T15:43:24.383Z,24.10
2019-05-31T15:45:54.627Z,24.10
2019-05-31T15:48:24.481Z,24.10
2019-05-31T15:50:55.062Z,24.20
2019-05-31T15:53:33.790Z,24.20
2019-05-31T15:55:57.252Z,24.10
2019-05-31T15:58:27.078Z,23.80
2019-05-31T16:00:57.769Z,23.60
2019-05-31T16:03:35.837Z,23.60
2019-05-31T16:06:00.534Z,23.70
2019-05-31T16:08:32.747Z,23.70
2019-05-31T16:11:03.581Z,23.60
2019-05-31T16:13:34.212Z,23.40
2019-05-31T16:16:05.331Z,23.50
2019-05-31T16:18:35.076Z,23.50
2019-05-31T16:21:05.551Z,23.60
2019-05-31T16:23:41.292Z,23.60
2019-05-31T16:26:08.424Z,23.40
2019-05-31T16:28:40.907Z,23.20
2019-05-31T16:31:12.516Z,23.20
2019-05-31T16:33:42.134Z,23.10
2019-05-31T16:36:12.391Z,23.00
2019-05-31T16:38:42.255Z,22.90
2019-05-31T16:41:12.472Z,22.80
2019-05-31T16:43:42.658Z,22.80
2019-05-31T16:46:12.288Z,22.80
2019-05-31T16:48:42.297Z,22.90
2019-05-31T16:51:12.417Z,22.80
2019-05-31T16:53:42.729Z,22.80
2019-05-31T16:56:13.028Z,22.80
2019-05-31T16:58:42.690Z,22.90
2019-05-31T17:01:15.031Z,22.80
2019-05-31T17:03:44.655Z,22.80
2019-05-31T17:06:14.569Z,22.80
2019-05-31T17:08:44.763Z,22.90
2019-05-31T17:11:15.020Z,23.00
2019-05-31T17:13:44.859Z,23.00
2019-05-31T17:16:16.170Z,23.00
2019-05-31T17:18:45.761Z,23.00
2019-05-31T17:21:15.934Z,22.90
2019-05-31T17:23:45.494Z,22.90
2019-05-31T17:26:15.325Z,22.80
2019-05-31T17:28:45.526Z,22.70
2019-05-31T17:31:15.670Z,22.60
2019-05-31T17:33:46.912Z,22.50
2019-05-31T17:36:16.726Z,22.40
2019-05-31T17:38:46.288Z,22.30
2019-05-31T17:41:16.150Z,22.20
2019-05-31T17:43:46.036Z,22.20
2019-05-31T17:46:15.522Z,22.20
2019-05-31T17:48:45.312Z,22.20
2019-05-31T17:51:15.003Z,22.00
2019-05-31T17:53:44.853Z,21.90
2019-05-31T17:56:15.023Z,21.90
2019-05-31T17:58:44.743Z,22.00
2019-05-31T18:01:15.419Z,21.90
2019-05-31T18:03:45.410Z,21.90
2019-05-31T18:06:15.726Z,21.90
2019-05-31T18:08:45.482Z,21.90
2019-05-31T18:11:16.221Z,22.00
2019-05-31T18:13:47.369Z,22.00
2019-05-31T18:16:18.695Z,21.80
2019-05-31T18:18:49.106Z,21.60
2019-05-31T18:21:18.830Z,21.50
2019-05-31T18:23:48.530Z,21.40
2019-05-31T18:26:18.640Z,21.30
2019-05-31T18:28:48.782Z,21.30
2019-05-31T18:31:18.770Z,21.20
2019-05-31T18:33:48.395Z,21.20
2019-05-31T18:36:18.730Z,21.20
2019-05-31T18:38:49.113Z,21.30
2019-05-31T18:41:18.734Z,21.30
2019-05-31T18:43:48.942Z,21.10
2019-05-31T18:46:18.939Z,21.00
2019-05-31T18:48:48.493Z,20.90
2019-05-31T18:51:19.103Z,20.80
2019-05-31T18:53:49.115Z,20.70
2019-05-31T18:56:20.081Z,20.60
2019-05-31T18:58:50.017Z,20.50
2019-05-31T19:01:21.411Z,20.50
2019-05-31T19:03:52.410Z,20.40
2019-05-31T19:06:22.185Z,20.30
2019-05-31T19:08:51.801Z,20.30
2019-05-31T19:11:21.833Z,20.20
2019-05-31T19:13:51.828Z,20.10
2019-05-31T19:16:21.633Z,20.00
2019-05-31T19:18:55.326Z,19.90
2019-05-31T19:21:23.649Z,19.90
2019-05-31T19:23:54.019Z,19.80
2019-05-31T19:26:26.281Z,19.70
2019-05-31T19:28:57.596Z,19.60
2019-05-31T19:34:57.197Z,19.30
2019-05-31T19:37:27.414Z,19.20
2019-05-31T19:39:56.985Z,19.10
2019-05-31T19:42:26.519Z,19.00
2019-05-31T19:44:56.019Z,18.90
2019-05-31T19:47:25.496Z,18.90
2019-05-31T19:49:55.044Z,18.90
2019-05-31T19:52:24.552Z,18.90
2019-05-31T19:54:54.116Z,18.90
2019-05-31T19:57:23.837Z,18.80
2019-05-31T19:59:53.471Z,18.80
2019-05-31T20:02:23.550Z,18.80
2019-05-31T20:04:53.301Z,18.80
2019-05-31T20:07:23.764Z,18.70
2019-05-31T20:09:53.429Z,18.70
2019-05-31T20:12:24.158Z,18.70
2019-05-31T20:14:53.941Z,18.70
2019-05-31T20:17:25.185Z,18.60
2019-05-31T20:19:54.865Z,18.50
2019-05-31T20:22:25.631Z,18.40
2019-05-31T20:24:55.485Z,18.30
2019-05-31T20:27:27.857Z,18.20
2019-05-31T20:30:06.471Z,18.20
2019-05-31T20:32:27.551Z,18.10
2019-05-31T20:34:57.106Z,18.00
2019-05-31T20:37:29.295Z,17.90
2019-05-31T20:39:57.946Z,17.90
2019-05-31T20:42:45.332Z,17.70
2019-05-31T20:44:58.743Z,17.60
2019-05-31T20:47:29.718Z,17.50
2019-05-31T20:50:05.321Z,17.50
2019-05-31T20:52:30.481Z,17.50
2019-05-31T20:55:00.040Z,17.50
2019-05-31T20:57:38.754Z,17.40
2019-05-31T21:00:01.698Z,17.40
2019-05-31T21:02:31.195Z,17.30
2019-05-31T21:05:00.839Z,17.30
2019-05-31T21:07:31.176Z,17.20
2019-05-31T21:10:00.781Z,17.20
2019-05-31T21:12:31.627Z,17.20
2019-05-31T21:15:01.445Z,17.20
2019-05-31T21:17:32.421Z,17.10
2019-05-31T21:20:02.169Z,17.00
2019-05-31T21:22:32.623Z,17.00
2019-05-31T21:25:02.304Z,16.90
2019-05-31T21:27:32.516Z,16.90
2019-05-31T21:30:03.076Z,16.80
2019-05-31T21:32:33.560Z,16.70
2019-05-31T21:35:04.890Z,16.60
2019-05-31T21:37:34.535Z,16.70
2019-05-31T21:40:06.911Z,16.70
2019-05-31T21:42:37.606Z,16.50
2019-05-31T21:45:10.401Z,16.50
2019-05-31T21:47:40.223Z,16.30
2019-05-31T21:50:10.822Z,16.20
2019-05-31T21:52:40.320Z,16.20
2019-05-31T21:55:10.472Z,16.10
2019-05-31T21:57:39.945Z,16.00
2019-05-31T22:00:17.572Z,15.90
2019-05-31T22:02:47.379Z,15.90
2019-05-31T22:05:17.567Z,15.80
2019-05-31T22:07:47.246Z,15.80
2019-05-31T22:10:16.935Z,15.80
2019-05-31T22:12:46.415Z,15.70
2019-05-31T22:15:16.238Z,15.70
2019-05-31T22:17:45.714Z,15.70
2019-05-31T22:20:15.411Z,15.60
2019-05-31T22:22:44.934Z,15.60
2019-05-31T22:25:14.799Z,15.60
2019-05-31T22:27:44.341Z,15.60
2019-05-31T22:30:26.425Z,15.50
2019-05-31T22:32:55.899Z,15.50
2019-05-31T22:35:25.404Z,15.50
2019-05-31T22:37:54.871Z,15.40
2019-05-31T22:40:24.392Z,15.30
2019-05-31T22:42:53.872Z,15.30
2019-05-31T22:45:23.353Z,15.20
2019-05-31T22:47:53.216Z,15.20
2019-05-31T22:50:22.842Z,15.20
2019-05-31T22:52:52.323Z,15.20
2019-05-31T22:55:21.822Z,15.10
2019-05-31T22:57:51.307Z,15.10
2019-05-31T23:00:21.117Z,15.00
2019-05-31T23:02:50.620Z,15.00
2019-05-31T23:05:20.089Z,15.10
2019-05-31T23:07:49.571Z,15.00
2019-05-31T23:10:19.916Z,15.00
2019-05-31T23:13:00.499Z,14.90
2019-05-31T23:15:20.747Z,14.80
2019-05-31T23:17:50.220Z,14.70
2019-05-31T23:20:19.797Z,14.70
2019-05-31T23:22:49.306Z,14.70
2019-05-31T23:25:18.835Z,14.70
2019-05-31T23:27:48.387Z,14.70
2019-05-31T23:30:18.404Z,14.60
2019-05-31T23:32:47.914Z,14.50
2019-05-31T23:35:17.449Z,14.50
2019-05-31T23:37:48.049Z,14.50
2019-05-31T23:40:19.750Z,14.40
2019-05-31T23:42:49.228Z,14.40
2019-05-31T23:45:18.906Z,14.40
2019-05-31T23:47:48.422Z,14.40
2019-05-31T23:50:19.805Z,14.30
2019-05-31T23:52:49.354Z,14.40
2019-05-31T23:55:18.985Z,14.40
2019-05-31T23:57:48.728Z,14.40
